Time;durP1;ratioP1;P1;durP2;ratioP2;P2;SDS_P1;SDS_P2;PMS_P1;PMS_P2;Temp;Humidity;BMP_temperature;BMP_pressure;BME280_temperature;BME280_humidity;BME280_pressure;Samples;Min_cycle;Max_cycle;Signal;HPM_P1;HPM_P2
2021/09/30 00:01:44;;;;;;;4.20;1.90;;;;;;;10.89;82.68;101688.94;5000118;28;20600;-79
2021/09/30 00:04:10;;;;;;;3.23;1.73;;;;;;;10.85;83.86;101684.53;5007379;28;20187;-79
2021/09/30 00:06:35;;;;;;;5.50;1.97;;;;;;;10.82;84.13;101679.31;4999011;28;20223;-77
2021/09/30 00:09:01;;;;;;;4.77;1.40;;;;;;;10.84;83.06;101704.19;4999943;28;20240;-79
2021/09/30 00:11:31;;;;;;;6.87;2.07;;;;;;;10.81;83.94;101691.28;4980167;28;20216;-78
2021/09/30 00:14:11;;;;;;;5.87;1.50;;;;;;;10.81;83.95;101692.94;5002269;28;20264;-80
2021/09/30 00:32:54;;;;;;;4.33;1.70;;;;;;;10.72;84.67;101700.34;4995920;28;20282;-80
2021/09/30 00:35:30;;;;;;;6.70;1.87;;;;;;;10.72;85.03;101705.47;4996934;28;20184;-79
2021/09/30 00:40:57;;;;;;;4.67;1.70;;;;;;;10.72;84.89;101713.16;4994897;28;20183;-78
2021/09/30 00:46:13;;;;;;;7.03;1.90;;;;;;;10.76;84.97;101705.63;4995630;28;20188;-77
2021/09/30 00:49:04;;;;;;;9.07;2.43;;;;;;;10.80;84.06;101707.47;4995396;28;20275;-79
2021/09/30 00:51:34;;;;;;;5.23;2.30;;;;;;;10.80;84.42;101717.72;5002142;28;20588;-79
2021/09/30 01:19:49;;;;;;;4.60;2.33;;;;;;;10.90;84.28;101737.69;4992574;28;20710;-80
2021/09/30 01:22:57;;;;;;;6.13;2.10;;;;;;;10.97;83.76;101736.19;5004746;28;20236;-80
2021/09/30 01:26:49;;;;;;;8.70;3.00;;;;;;;11.00;83.19;101731.16;4976267;28;20220;-79
2021/09/30 01:34:21;;;;;;;6.20;2.00;;;;;;;11.00;83.65;101751.66;4992701;28;20211;-79
2021/09/30 02:18:19;;;;;;;5.57;2.33;;;;;;;10.95;84.38;101764.34;4997396;28;20264;-79
2021/09/30 02:23:59;;;;;;;5.57;1.50;;;;;;;10.97;83.85;101769.50;5003122;28;20650;-78
2021/09/30 02:29:23;;;;;;;5.50;1.97;;;;;;;10.94;84.04;101777.97;4999079;28;20231;-80
2021/09/30 02:58:04;;;;;;;6.73;1.70;;;;;;;10.90;83.74;101783.81;5002170;28;20188;-80
2021/09/30 02:59:44;;;;;;;7.03;1.80;;;;;;;10.96;81.29;101799.38;5005887;28;20176;-79
2021/09/30 03:02:11;;;;;;;4.03;1.43;;;;;;;10.95;81.87;101807.91;5020094;28;20215;-77
2021/09/30 03:04:38;;;;;;;7.07;1.40;;;;;;;10.95;81.62;101818.16;5015509;28;20233;-79
2021/09/30 03:07:06;;;;;;;8.23;1.53;;;;;;;10.93;81.51;101812.06;5015490;28;20261;-79
2021/09/30 03:09:41;;;;;;;4.80;1.70;;;;;;;10.94;81.61;101812.97;4992512;28;20211;-79
2021/09/30 03:12:18;;;;;;;6.47;1.60;;;;;;;10.86;81.53;101815.28;5007980;28;20313;-79
2021/09/30 03:14:48;;;;;;;8.13;1.50;;;;;;;10.93;81.07;101804.41;5016218;28;20201;-79
2021/09/30 03:17:20;;;;;;;5.80;1.50;;;;;;;10.92;80.84;101832.56;4999106;28;20187;-77
2021/09/30 03:20:04;;;;;;;8.57;1.47;;;;;;;10.92;80.86;101830.00;5015506;28;20195;-77
2021/09/30 03:22:32;;;;;;;5.77;1.23;;;;;;;10.93;81.33;101858.22;4991139;28;20718;-79
2021/09/30 03:24:58;;;;;;;6.93;1.47;;;;;;;10.92;80.87;101823.16;5003093;28;20188;-77
2021/09/30 03:27:25;;;;;;;7.07;1.33;;;;;;;10.95;80.44;101841.22;4999219;28;20212;-79
2021/09/30 03:29:51;;;;;;;5.03;1.60;;;;;;;10.91;80.98;101848.72;4975220;28;20248;-78
2021/09/30 03:32:17;;;;;;;6.87;1.63;;;;;;;10.94;80.19;101836.91;4996237;28;20206;-79
2021/09/30 03:34:53;;;;;;;5.60;1.73;;;;;;;10.97;80.43;101854.94;5002844;28;20180;-80
2021/09/30 03:37:21;;;;;;;5.93;1.37;;;;;;;11.00;79.37;101847.34;5006559;28;20197;-80
2021/09/30 03:39:47;;;;;;;6.47;1.30;;;;;;;10.95;79.78;101848.91;5004875;28;20564;-80
2021/09/30 03:42:12;;;;;;;8.77;1.50;;;;;;;10.94;80.06;101846.28;4998280;28;20310;-80
2021/09/30 03:44:40;;;;;;;6.43;1.20;;;;;;;10.92;80.17;101858.19;4983429;28;20611;-79
2021/09/30 03:47:09;;;;;;;5.63;1.60;;;;;;;10.87;79.93;101855.44;5031146;28;20194;-78
2021/09/30 03:49:43;;;;;;;3.63;1.30;;;;;;;10.84;80.78;101863.03;4986589;28;20203;-79
2021/09/30 03:52:14;;;;;;;5.73;1.30;;;;;;;10.83;79.93;101861.28;4991268;28;20216;-80
2021/09/30 03:54:49;;;;;;;6.10;1.30;;;;;;;10.83;80.14;101870.69;5034596;28;20253;-78
2021/09/30 03:59:46;;;;;;;5.30;1.20;;;;;;;10.83;79.56;101873.22;5007718;28;20193;-78
2021/09/30 04:02:20;;;;;;;9.17;1.93;;;;;;;10.81;80.08;101869.72;5014577;28;20257;-79
2021/09/30 04:04:46;;;;;;;6.50;1.63;;;;;;;10.77;80.09;101880.69;4994913;28;20184;-78
2021/09/30 04:07:12;;;;;;;9.03;1.50;;;;;;;10.80;79.74;101889.38;5015797;28;20184;-80
2021/09/30 04:09:39;;;;;;;7.13;1.40;;;;;;;10.77;80.33;101888.38;4999542;28;20215;-79
2021/09/30 04:12:10;;;;;;;7.00;1.60;;;;;;;10.73;80.22;101895.09;5025108;28;20207;-80
2021/09/30 04:14:37;;;;;;;4.83;1.80;;;;;;;10.71;80.50;101896.72;4990363;28;20191;-78
2021/09/30 04:17:03;;;;;;;6.57;1.60;;;;;;;10.75;79.94;101888.34;5014308;28;20214;-79
2021/09/30 04:19:29;;;;;;;8.00;1.60;;;;;;;10.70;80.14;101889.84;4989243;28;20211;-79
2021/09/30 04:21:56;;;;;;;8.67;1.43;;;;;;;10.69;80.09;101905.19;5008040;28;20190;-78
2021/09/30 04:24:21;;;;;;;4.80;1.63;;;;;;;10.70;79.89;101889.84;5010088;28;20194;-78
2021/09/30 04:26:49;;;;;;;6.53;1.40;;;;;;;10.65;79.68;101890.53;4990746;28;20588;-77
2021/09/30 04:29:14;;;;;;;6.47;1.60;;;;;;;10.68;79.89;101906.84;5016814;28;20216;-80
2021/09/30 04:31:40;;;;;;;5.47;1.80;;;;;;;10.67;79.73;101900.00;4994134;28;20536;-80
2021/09/30 04:34:05;;;;;;;5.63;1.67;;;;;;;10.67;79.34;101904.25;4999237;28;20187;-81
2021/09/30 04:36:32;;;;;;;6.17;1.40;;;;;;;10.63;80.16;101908.38;4989329;28;20523;-78
2021/09/30 04:38:57;;;;;;;7.40;1.70;;;;;;;10.66;79.70;101913.63;5013593;28;20684;-79
2021/09/30 04:41:23;;;;;;;5.43;1.67;;;;;;;10.61;79.96;101915.16;5006290;28;20423;-80
2021/09/30 04:43:50;;;;;;;7.33;1.27;;;;;;;10.58;80.48;101924.38;5010119;28;20235;-80
2021/09/30 04:46:17;;;;;;;7.83;1.50;;;;;;;10.57;79.96;101928.66;4978311;28;20243;-79
2021/09/30 04:48:56;;;;;;;4.43;1.50;;;;;;;10.52;80.02;101930.19;4990862;28;20200;-79
2021/09/30 04:51:22;;;;;;;6.47;1.30;;;;;;;10.59;79.78;101944.94;5005530;28;20187;-79
2021/09/30 04:53:47;;;;;;;4.47;1.83;;;;;;;10.57;79.63;101932.91;4994054;28;20916;-79
2021/09/30 04:56:13;;;;;;;3.97;1.37;;;;;;;10.56;79.46;101928.59;4989255;28;20240;-79
2021/09/30 04:58:42;;;;;;;5.67;1.47;;;;;;;10.55;79.97;101947.34;4977572;28;20263;-80
2021/09/30 05:01:08;;;;;;;8.73;1.87;;;;;;;10.53;79.93;101942.16;5013887;28;20172;-79
2021/09/30 05:03:37;;;;;;;6.30;1.83;;;;;;;10.53;80.55;101949.84;5019246;28;20569;-80
2021/09/30 05:06:03;;;;;;;4.10;1.70;;;;;;;10.49;80.53;101937.75;4997167;28;20218;-81
2021/09/30 05:08:33;;;;;;;8.37;2.03;;;;;;;10.44;80.77;101939.25;4985268;28;20674;-81
2021/09/30 05:10:59;;;;;;;5.00;1.53;;;;;;;10.44;80.16;101958.84;4989559;28;20210;-82
2021/09/30 05:13:36;;;;;;;4.63;1.90;;;;;;;10.42;80.57;101966.47;5007313;28;20293;-81
2021/09/30 05:16:07;;;;;;;4.87;1.30;;;;;;;10.41;80.51;101958.75;5001329;28;20226;-79
2021/09/30 05:18:54;;;;;;;6.93;1.73;;;;;;;10.35;80.50;101964.53;4999384;28;20234;-79
2021/09/30 05:21:21;;;;;;;6.40;1.97;;;;;;;10.30;80.88;101958.34;5004103;28;20195;-80
2021/09/30 05:23:48;;;;;;;5.10;1.80;;;;;;;10.31;81.03;101966.88;4985327;28;20259;-80
2021/09/30 05:26:14;;;;;;;5.90;1.53;;;;;;;10.28;81.00;101961.66;4987369;28;20183;-79
2021/09/30 05:28:40;;;;;;;5.77;1.77;;;;;;;10.33;80.59;101970.41;4999603;28;20207;-80
2021/09/30 05:31:06;;;;;;;5.83;1.50;;;;;;;10.25;80.94;101976.91;4991106;28;20207;-78
2021/09/30 05:33:51;;;;;;;8.43;2.37;;;;;;;10.27;80.95;101978.69;5007708;28;20226;-80
2021/09/30 05:36:18;;;;;;;6.50;1.90;;;;;;;10.28;80.60;101972.75;5035210;28;20594;-78
2021/09/30 05:38:43;;;;;;;4.30;1.73;;;;;;;10.32;80.21;101978.91;4996331;28;20191;-81
2021/09/30 05:41:09;;;;;;;7.53;1.53;;;;;;;10.32;80.11;101969.50;4998662;28;20188;-79
2021/09/30 05:43:36;;;;;;;7.33;1.67;;;;;;;10.35;79.67;101974.75;4977105;28;20204;-78
2021/09/30 05:46:03;;;;;;;5.33;1.40;;;;;;;10.34;80.08;101983.25;5020518;28;20199;-81
2021/09/30 05:48:29;;;;;;;10.43;2.60;;;;;;;10.37;79.91;101985.91;4994988;28;20669;-80
2021/09/30 05:50:55;;;;;;;4.63;1.67;;;;;;;10.37;80.09;101985.91;4998575;28;20215;-79
2021/09/30 05:53:43;;;;;;;6.07;1.47;;;;;;;10.46;78.98;101987.97;4991112;28;20215;-79
2021/09/30 05:56:17;;;;;;;6.27;1.83;;;;;;;10.47;79.29;101994.84;5020957;28;20202;-79
2021/09/30 05:58:42;;;;;;;3.80;1.30;;;;;;;10.55;78.04;101991.75;5029013;28;20598;-79
2021/09/30 06:01:11;;;;;;;7.53;1.80;;;;;;;10.53;78.81;101995.06;5006452;28;20183;-79
2021/09/30 06:09:39;;;;;;;6.63;1.67;;;;;;;10.44;79.15;102010.06;5007763;28;20175;-77
2021/09/30 06:14:54;;;;;;;4.70;1.53;;;;;;;10.47;79.28;102008.50;4983875;28;20196;-78
2021/09/30 06:17:20;;;;;;;5.83;1.33;;;;;;;10.55;78.42;102011.38;4975408;28;20193;-78
2021/09/30 06:19:51;;;;;;;6.73;1.43;;;;;;;10.58;78.04;102024.28;4974189;28;20177;-80
2021/09/30 06:22:16;;;;;;;7.67;1.20;;;;;;;10.59;78.22;102011.53;4974704;28;20212;-79
2021/09/30 06:24:42;;;;;;;5.60;1.30;;;;;;;10.63;77.74;102013.41;5002266;28;20379;-80
2021/09/30 06:27:07;;;;;;;5.83;1.30;;;;;;;10.72;78.38;102011.19;4975308;28;20189;-79
2021/09/30 06:29:33;;;;;;;7.03;1.70;;;;;;;10.79;77.94;102027.66;4989839;28;20299;-78
2021/09/30 06:32:03;;;;;;;7.10;1.73;;;;;;;10.72;77.91;102020.53;4990040;28;20251;-77
2021/09/30 06:34:51;;;;;;;7.37;1.60;;;;;;;10.72;77.95;102028.22;4974134;28;20814;-78
2021/09/30 06:37:22;;;;;;;7.50;1.87;;;;;;;10.75;78.30;102036.94;4974018;28;20192;-79
2021/09/30 06:39:47;;;;;;;3.93;1.10;;;;;;;10.74;78.12;102042.00;4974414;28;20191;-78
2021/09/30 06:42:13;;;;;;;6.20;1.57;;;;;;;10.80;77.55;102039.66;4974029;28;20469;-78
2021/09/30 06:44:44;;;;;;;5.47;1.20;;;;;;;10.83;78.14;102048.31;4974260;28;20272;-81
2021/09/30 06:47:30;;;;;;;5.33;1.13;;;;;;;10.86;77.65;102050.13;4973793;28;20204;-78
2021/09/30 06:50:09;;;;;;;5.20;1.57;;;;;;;10.85;77.31;102041.56;4990318;28;20204;-80
2021/09/30 06:53:07;;;;;;;5.97;2.20;;;;;;;10.91;77.16;102066.53;4983773;28;20220;-79
2021/09/30 06:55:48;;;;;;;3.77;1.30;;;;;;;10.99;76.95;102057.44;4976020;28;20629;-79
2021/09/30 06:58:35;;;;;;;6.30;1.30;;;;;;;11.08;76.28;102068.03;4974722;28;20230;-79
2021/09/30 07:01:26;;;;;;;6.20;1.37;;;;;;;11.13;75.95;102066.50;4998002;28;20207;-80
2021/09/30 07:04:11;;;;;;;3.53;0.87;;;;;;;11.09;77.08;102069.78;4995103;28;20222;-80
2021/09/30 07:07:06;;;;;;;9.10;1.70;;;;;;;11.09;76.75;102064.66;4981071;28;20609;-79
2021/09/30 07:09:32;;;;;;;8.97;1.40;;;;;;;11.36;76.34;102075.91;4977815;28;20212;-79
2021/09/30 07:11:59;;;;;;;5.80;1.20;;;;;;;11.63;74.77;102076.94;4977070;28;20736;-78
2021/09/30 07:14:28;;;;;;;4.47;1.23;;;;;;;11.89;74.25;102076.13;4994729;28;20188;-78
2021/09/30 07:16:53;;;;;;;5.80;1.27;;;;;;;11.77;74.21;102084.28;4993476;28;20199;-81
2021/09/30 07:19:19;;;;;;;5.67;1.77;;;;;;;11.85;73.96;102079.41;4974252;28;20185;-80
2021/09/30 07:21:45;;;;;;;4.27;1.53;;;;;;;11.89;74.20;102088.97;4990662;28;20267;-78
2021/09/30 07:24:10;;;;;;;5.87;1.37;;;;;;;11.91;73.52;102098.47;4975128;28;20231;-78
2021/09/30 07:26:36;;;;;;;6.93;1.93;;;;;;;11.70;74.07;102096.88;4967664;28;20270;-78
2021/09/30 07:29:01;;;;;;;6.80;1.30;;;;;;;11.79;74.57;102099.72;4990371;28;20617;-78
2021/09/30 07:31:26;;;;;;;4.03;1.27;;;;;;;11.71;74.18;102103.72;4993585;28;20752;-79
2021/09/30 07:33:52;;;;;;;5.73;1.20;;;;;;;11.74;73.74;102106.38;4992412;28;20208;-80
2021/09/30 07:36:18;;;;;;;4.00;0.90;;;;;;;11.85;74.13;102105.94;4994566;28;20195;-81
2021/09/30 07:38:43;;;;;;;4.37;1.40;;;;;;;11.97;73.53;102114.06;4995225;28;20703;-77
2021/09/30 07:41:09;;;;;;;3.90;1.13;;;;;;;11.84;73.75;102111.03;4980651;28;20595;-78
2021/09/30 07:43:34;;;;;;;3.77;1.03;;;;;;;11.84;73.51;102091.38;4998434;28;20803;-79
2021/09/30 07:46:00;;;;;;;3.13;1.17;;;;;;;11.90;73.91;102106.09;4996888;28;20215;-78
2021/09/30 07:48:25;;;;;;;4.97;1.20;;;;;;;11.76;73.82;102108.19;4980735;28;20446;-79
2021/09/30 07:50:50;;;;;;;8.17;1.47;;;;;;;11.80;73.04;102117.75;4996204;28;20585;-79
2021/09/30 07:53:16;;;;;;;3.73;1.10;;;;;;;11.82;72.58;102122.94;4979206;28;21011;-79
2021/09/30 07:55:42;;;;;;;3.47;1.20;;;;;;;11.88;72.72;102121.44;4992828;28;20219;-79
2021/09/30 07:58:09;;;;;;;4.17;1.07;;;;;;;11.92;73.48;102130.13;4993423;28;20188;-79
2021/09/30 08:00:37;;;;;;;5.87;1.33;;;;;;;11.86;72.14;102132.50;4981717;28;20267;-79
2021/09/30 08:03:03;;;;;;;6.27;1.70;;;;;;;11.96;72.35;102126.84;4996529;28;20219;-78
2021/09/30 08:05:29;;;;;;;4.80;1.13;;;;;;;12.47;70.67;102124.31;4995610;28;20184;-80
2021/09/30 08:07:54;;;;;;;3.33;1.00;;;;;;;13.21;68.00;102134.34;4997077;28;20176;-79
2021/09/30 08:10:20;;;;;;;5.40;1.20;;;;;;;13.38;68.12;102140.00;4977069;28;20675;-78
2021/09/30 08:12:45;;;;;;;5.30;1.23;;;;;;;13.14;68.58;102137.59;4976420;28;20578;-79
2021/09/30 08:15:11;;;;;;;3.70;1.10;;;;;;;12.94;70.11;102149.81;4977057;28;20188;-79
2021/09/30 08:17:36;;;;;;;4.13;1.10;;;;;;;13.42;68.21;102136.69;4973314;28;20885;-80
2021/09/30 08:20:03;;;;;;;3.50;1.10;;;;;;;13.73;67.06;102134.13;4973344;28;20207;-78
2021/09/30 08:22:28;;;;;;;3.43;1.30;;;;;;;14.02;65.91;102141.81;4987352;28;20235;-78
2021/09/30 08:24:53;;;;;;;5.27;1.40;;;;;;;14.33;64.85;102146.06;4993924;28;20226;-80
2021/09/30 08:27:19;;;;;;;6.17;1.30;;;;;;;14.00;65.36;102147.75;4991295;28;20311;-78
2021/09/30 08:29:44;;;;;;;4.30;1.40;;;;;;;14.16;65.87;102157.63;5013383;28;20230;-77
2021/09/30 08:32:10;;;;;;;5.87;1.80;;;;;;;14.34;64.22;102150.38;4998708;28;20656;-78
2021/09/30 08:34:36;;;;;;;8.73;1.50;;;;;;;14.19;64.24;102156.00;4994402;28;20172;-80
2021/09/30 08:37:01;;;;;;;3.70;1.10;;;;;;;14.95;63.97;102148.44;4978967;28;20192;-77
2021/09/30 08:39:26;;;;;;;2.10;1.07;;;;;;;15.36;62.20;102158.88;4996499;28;20184;-76
2021/09/30 08:41:54;;;;;;;5.57;1.33;;;;;;;15.35;61.85;102153.66;4978696;28;20199;-79
2021/09/30 08:44:19;;;;;;;5.03;1.43;;;;;;;15.51;61.80;102151.44;4976341;28;20235;-78
2021/09/30 08:46:44;;;;;;;4.13;1.63;;;;;;;15.86;61.13;102152.13;4992069;28;20192;-78
2021/09/30 08:49:11;;;;;;;5.23;1.13;;;;;;;14.84;62.44;102168.84;4974696;28;20208;-78
2021/09/30 08:51:36;;;;;;;6.00;1.13;;;;;;;14.93;62.52;102147.53;5008420;28;20188;-78
2021/09/30 08:54:02;;;;;;;5.17;1.30;;;;;;;15.42;61.18;102156.41;4975970;28;20220;-78
2021/09/30 08:56:28;;;;;;;7.37;1.87;;;;;;;15.71;60.44;102159.59;5008677;28;20188;-78
2021/09/30 08:58:53;;;;;;;3.00;1.17;;;;;;;15.73;59.43;102166.50;4992068;28;20234;-77
2021/09/30 09:01:19;;;;;;;5.50;1.50;;;;;;;15.65;60.75;102178.41;4993790;28;20184;-78
2021/09/30 09:03:46;;;;;;;6.30;1.80;;;;;;;14.77;62.48;102182.41;4979322;28;20204;-79
2021/09/30 09:06:48;;;;;;;4.23;1.50;;;;;;;14.78;61.53;102176.41;4995568;28;20180;-79
2021/09/30 09:09:25;;;;;;;7.37;1.93;;;;;;;14.97;62.46;102188.06;4977550;28;20183;-79
2021/09/30 09:11:53;;;;;;;5.33;1.50;;;;;;;15.15;61.18;102178.16;4991727;28;20198;-78
2021/09/30 09:14:23;;;;;;;5.40;1.73;;;;;;;15.79;59.67;102182.13;4995515;28;20518;-79
2021/09/30 09:16:57;;;;;;;5.47;1.40;;;;;;;16.57;57.05;102175.84;4971396;28;20192;-78
2021/09/30 09:19:39;;;;;;;5.40;1.70;;;;;;;20.74;46.56;102157.63;4975796;28;20185;-75
2021/09/30 09:22:07;;;;;;;4.37;1.30;;;;;;;23.19;40.69;102164.06;4985507;28;20302;-76
2021/09/30 09:24:33;;;;;;;3.37;1.50;;;;;;;23.43;39.51;102148.97;4976549;28;20319;-76
2021/09/30 09:27:02;;;;;;;3.43;1.50;;;;;;;22.02;41.20;102161.56;4980311;28;20732;-77
2021/09/30 09:29:31;;;;;;;5.00;1.77;;;;;;;21.31;44.27;102155.81;5001181;28;20219;-76
2021/09/30 09:32:01;;;;;;;5.18;1.73;;;;;;;24.96;36.63;102151.00;5007816;28;20179;-76
2021/09/30 09:34:36;;;;;;;5.65;1.98;;;;;;;28.07;32.52;102155.41;4991142;28;20240;-78
2021/09/30 09:37:22;;;;;;;2.92;1.70;;;;;;;26.99;31.93;102166.47;4992822;28;20400;-77
2021/09/30 09:39:48;;;;;;;3.97;1.55;;;;;;;26.46;33.51;102164.34;4993806;28;20196;-77
2021/09/30 09:42:17;;;;;;;5.38;1.60;;;;;;;25.39;34.53;102179.03;4992232;28;20844;-76
2021/09/30 09:44:59;;;;;;;4.53;1.77;;;;;;;26.58;32.46;102163.22;4993533;28;20188;-77
2021/09/30 09:47:28;;;;;;;4.18;1.80;;;;;;;23.64;37.67;102179.22;4993165;28;20187;-78
2021/09/30 09:50:08;;;;;;;5.10;1.92;;;;;;;24.37;36.41;102175.59;4993718;28;20215;-76
2021/09/30 09:53:01;;;;;;;4.50;1.88;;;;;;;25.98;34.39;102173.41;4972020;28;20267;-76
2021/09/30 09:55:35;;;;;;;6.25;1.75;;;;;;;26.28;33.88;102163.91;4989328;28;20213;-77
2021/09/30 09:58:16;;;;;;;4.60;1.95;;;;;;;25.11;35.70;102167.31;4972588;28;20200;-79
2021/09/30 10:00:50;;;;;;;3.63;1.70;;;;;;;26.00;33.58;102168.97;4986689;28;20641;-76
2021/09/30 10:03:26;;;;;;;4.22;1.85;;;;;;;27.52;31.44;102171.13;4992187;28;20223;-77
2021/09/30 10:05:53;;;;;;;6.47;2.30;;;;;;;28.74;30.81;102157.56;5002297;28;20849;-76
2021/09/30 10:08:18;;;;;;;5.50;2.33;;;;;;;29.23;29.41;102154.06;5007266;28;20215;-76
2021/09/30 10:10:46;;;;;;;4.00;1.58;;;;;;;28.70;30.30;102157.75;4997743;28;20257;-78
2021/09/30 10:13:13;;;;;;;4.30;2.00;;;;;;;26.42;33.16;102175.84;4976157;28;20633;-77
2021/09/30 10:15:39;;;;;;;4.50;1.98;;;;;;;27.76;31.44;102167.78;4974332;28;20189;-77
2021/09/30 10:18:07;;;;;;;4.80;2.40;;;;;;;28.86;29.63;102167.72;5008636;28;20204;-76
2021/09/30 10:20:33;;;;;;;4.95;1.95;;;;;;;27.56;31.36;102164.88;4993110;28;20199;-77
2021/09/30 10:23:02;;;;;;;4.68;1.95;;;;;;;26.86;33.33;102170.34;4992911;28;20215;-78
2021/09/30 10:25:36;;;;;;;4.70;2.28;;;;;;;27.53;32.56;102166.75;4990271;28;20192;-79
2021/09/30 10:28:03;;;;;;;7.47;2.60;;;;;;;21.04;43.29;102207.97;4977088;28;20243;-76
2021/09/30 10:30:43;;;;;;;7.85;2.30;;;;;;;22.54;41.24;102197.75;4999542;28;20226;-78
2021/09/30 10:33:20;;;;;;;6.70;1.83;;;;;;;20.95;45.65;102212.31;5007387;28;20207;-78
2021/09/30 10:35:53;;;;;;;6.83;2.17;;;;;;;20.12;47.21;102217.44;4992917;28;20243;-77
2021/09/30 10:38:31;;;;;;;5.43;1.60;;;;;;;20.99;45.00;102204.53;4993235;28;20184;-77
2021/09/30 10:41:06;;;;;;;7.43;2.50;;;;;;;22.72;40.94;102202.84;4993979;28;20596;-77
2021/09/30 10:43:35;;;;;;;9.47;2.47;;;;;;;19.72;47.92;102220.72;4973763;28;20649;-77
2021/09/30 10:46:01;;;;;;;6.70;2.23;;;;;;;23.36;39.20;102198.75;4974151;28;20176;-77
2021/09/30 10:48:27;;;;;;;5.50;1.85;;;;;;;25.63;35.43;102186.38;5000084;28;20308;-77
2021/09/30 10:50:56;;;;;;;8.00;1.90;;;;;;;23.17;39.86;102198.06;4974980;28;20686;-79
2021/09/30 10:53:46;;;;;;;4.93;2.08;;;;;;;26.06;34.81;102189.00;4971059;28;20216;-77
2021/09/30 10:56:24;;;;;;;6.80;2.40;;;;;;;24.85;35.57;102195.75;4987351;28;20205;-76
2021/09/30 10:58:49;;;;;;;5.30;1.85;;;;;;;23.42;38.16;102204.78;4987931;28;20200;-77
2021/09/30 11:01:15;;;;;;;7.10;2.08;;;;;;;22.73;39.60;102204.56;4982578;28;20204;-76
2021/09/30 11:03:57;;;;;;;5.43;1.77;;;;;;;21.04;44.05;102210.59;4971580;28;20205;-77
2021/09/30 11:06:22;;;;;;;6.27;1.70;;;;;;;20.68;45.08;102217.53;4972334;28;20202;-76
2021/09/30 11:09:18;;;;;;;5.30;1.60;;;;;;;20.89;44.40;102222.72;4971895;28;20612;-76
2021/09/30 11:11:46;;;;;;;6.00;1.93;;;;;;;19.17;47.64;102229.06;4973970;28;20198;-77
2021/09/30 11:14:13;;;;;;;7.70;2.00;;;;;;;20.24;44.40;102229.63;4972070;28;20560;-76
2021/09/30 11:16:48;;;;;;;7.00;1.67;;;;;;;20.58;43.84;102229.66;4976200;28;20291;-77
2021/09/30 11:19:34;;;;;;;6.67;1.93;;;;;;;20.05;45.47;102230.41;4976164;28;20255;-77
2021/09/30 11:22:05;;;;;;;4.33;1.90;;;;;;;18.73;48.57;102253.84;4986441;28;20288;-78
2021/09/30 11:24:33;;;;;;;6.10;1.93;;;;;;;20.40;44.14;102245.25;5002718;28;20664;-76
2021/09/30 11:26:59;;;;;;;7.27;1.93;;;;;;;20.24;43.71;102235.69;4994648;28;20195;-76
2021/09/30 11:29:29;;;;;;;4.63;1.73;;;;;;;20.32;43.69;102243.53;5007481;28;20231;-78
2021/09/30 11:31:54;;;;;;;5.77;1.73;;;;;;;21.12;42.59;102234.91;5006383;28;20233;-77
2021/09/30 11:34:35;;;;;;;8.40;1.67;;;;;;;20.72;41.97;102240.97;4989731;28;20187;-78
2021/09/30 11:37:35;;;;;;;5.25;1.80;;;;;;;23.52;37.12;102232.56;4992949;28;20191;-78
2021/09/30 11:40:04;;;;;;;3.35;1.45;;;;;;;25.83;33.32;102225.34;4996704;28;20183;-78
2021/09/30 11:42:35;;;;;;;4.25;1.80;;;;;;;28.30;29.17;102225.84;4996935;28;20204;-78
2021/09/30 11:45:09;;;;;;;3.85;1.70;;;;;;;27.49;30.29;102217.75;4997363;28;20188;-78
2021/09/30 11:47:35;;;;;;;4.53;2.00;;;;;;;28.63;27.65;102209.84;4996494;28;20183;-79
2021/09/30 11:50:03;;;;;;;5.22;1.80;;;;;;;26.25;29.71;102227.91;4995024;28;20223;-79
2021/09/30 11:52:29;;;;;;;5.30;1.98;;;;;;;26.28;30.93;102226.97;4979581;28;20228;-78
2021/09/30 11:54:54;;;;;;;4.53;1.85;;;;;;;28.76;28.15;102205.00;4976825;28;20200;-78
2021/09/30 11:57:25;;;;;;;6.38;2.40;;;;;;;28.41;28.11;102221.16;5010665;28;20189;-78
2021/09/30 11:59:51;;;;;;;5.35;1.40;;;;;;;23.37;35.80;102240.59;5007644;28;20188;-77
2021/09/30 12:02:16;;;;;;;5.27;1.67;;;;;;;20.92;40.44;102254.03;4977515;28;20272;-77
2021/09/30 12:04:48;;;;;;;6.07;1.80;;;;;;;19.67;43.47;102252.78;4977674;28;20200;-77
2021/09/30 12:07:22;;;;;;;5.10;1.73;;;;;;;19.52;44.90;102260.50;4976027;28;20215;-77
2021/09/30 12:09:51;;;;;;;5.27;1.40;;;;;;;18.57;46.95;102266.66;4978350;28;20279;-77
2021/09/30 12:12:17;;;;;;;5.50;1.50;;;;;;;19.41;44.23;102265.66;4976059;28;20268;-76
2021/09/30 12:14:48;;;;;;;5.10;1.43;;;;;;;18.67;46.95;102271.06;4975543;28;20189;-76
2021/09/30 12:17:18;;;;;;;6.07;1.67;;;;;;;17.77;47.42;102267.44;4977133;28;20626;-76
2021/09/30 12:19:53;;;;;;;6.60;1.80;;;;;;;18.44;46.04;102277.75;4977096;28;20176;-77
2021/09/30 12:22:22;;;;;;;4.53;1.50;;;;;;;18.00;48.08;102277.22;4975963;28;20208;-76
2021/09/30 12:24:53;;;;;;;5.37;1.57;;;;;;;18.66;47.10;102257.22;4975742;28;20204;-77
2021/09/30 12:27:21;;;;;;;6.40;1.43;;;;;;;19.49;46.72;102255.28;4979677;28;20180;-76
2021/09/30 12:29:53;;;;;;;4.63;1.93;;;;;;;19.08;44.53;102265.38;5006441;28;20222;-78
2021/09/30 12:32:27;;;;;;;6.90;1.50;;;;;;;19.53;44.58;102268.28;5016908;28;20636;-77
2021/09/30 12:35:00;;;;;;;7.73;1.70;;;;;;;18.69;45.38;102272.81;5015022;28;20236;-77
2021/09/30 12:37:47;;;;;;;5.20;1.40;;;;;;;19.80;44.12;102275.41;5012414;28;20188;-77
2021/09/30 12:40:20;;;;;;;2.97;1.47;;;;;;;20.06;44.01;102268.56;5008688;28;20274;-75
2021/09/30 12:42:57;;;;;;;4.33;1.30;;;;;;;20.06;42.71;102263.34;4990676;28;20255;-78
2021/09/30 12:45:23;;;;;;;5.33;1.80;;;;;;;19.67;44.65;102273.59;4975987;28;20191;-77
2021/09/30 12:47:48;;;;;;;7.30;1.53;;;;;;;19.96;44.17;102266.78;5006544;28;20275;-79
2021/09/30 12:50:18;;;;;;;7.47;1.67;;;;;;;20.23;42.98;102270.38;4994278;28;20212;-78
2021/09/30 12:52:44;;;;;;;6.63;1.73;;;;;;;19.47;43.55;102270.00;4992655;28;20211;-77
2021/09/30 12:55:13;;;;;;;7.53;2.00;;;;;;;20.17;42.82;102278.16;4996964;28;20220;-79
2021/09/30 12:57:38;;;;;;;7.33;1.73;;;;;;;20.62;41.92;102267.84;4991247;28;20204;-77
2021/09/30 13:00:07;;;;;;;4.83;1.53;;;;;;;20.98;39.37;102259.22;4992282;28;20184;-77
2021/09/30 13:02:33;;;;;;;4.87;1.70;;;;;;;20.21;40.60;102263.41;4991678;28;20208;-78
2021/09/30 13:04:58;;;;;;;6.43;1.70;;;;;;;19.95;41.39;102265.06;4991732;28;20219;-77
2021/09/30 13:07:24;;;;;;;7.50;1.70;;;;;;;19.93;41.64;102267.63;4976779;28;20192;-77
2021/09/30 13:10:00;;;;;;;5.17;1.40;;;;;;;20.45;40.81;102273.91;4976162;28;20585;-78
2021/09/30 13:12:26;;;;;;;5.53;1.50;;;;;;;20.56;41.23;102264.38;4976532;28;20614;-77
2021/09/30 13:14:53;;;;;;;6.10;1.40;;;;;;;20.98;40.39;102269.66;4977622;28;20258;-79
2021/09/30 13:17:30;;;;;;;5.20;1.30;;;;;;;20.89;39.69;102265.28;5006897;28;20797;-76
2021/09/30 13:20:06;;;;;;;5.10;1.40;;;;;;;20.69;39.25;102260.94;4973989;28;20641;-77
2021/09/30 13:22:35;;;;;;;8.87;1.87;;;;;;;20.64;39.79;102268.72;5007176;28;20216;-77
2021/09/30 13:25:06;;;;;;;7.73;1.80;;;;;;;20.37;39.91;102262.63;5006679;28;20205;-77
2021/09/30 13:27:35;;;;;;;5.40;1.67;;;;;;;20.38;40.22;102264.34;4981273;28;20185;-78
2021/09/30 13:30:04;;;;;;;5.53;1.40;;;;;;;19.61;41.09;102268.34;5009362;28;20215;-76
2021/09/30 13:32:29;;;;;;;5.93;1.60;;;;;;;19.51;40.56;102266.56;5000196;28;20262;-76
2021/09/30 13:34:56;;;;;;;6.20;1.50;;;;;;;19.35;41.61;102269.94;4995243;28;20184;-76
2021/09/30 13:37:22;;;;;;;5.70;1.50;;;;;;;18.79;42.42;102273.78;4993643;28;20192;-77
2021/09/30 13:39:48;;;;;;;5.13;1.40;;;;;;;18.83;42.89;102262.59;4996320;28;20179;-76
2021/09/30 13:42:14;;;;;;;3.60;1.40;;;;;;;18.85;43.16;102273.84;4994497;28;20231;-76
2021/09/30 13:44:40;;;;;;;7.70;1.73;;;;;;;18.53;42.90;102268.34;4994527;28;20188;-76
2021/09/30 13:47:05;;;;;;;4.93;1.53;;;;;;;18.71;42.79;102263.34;4998071;28;20194;-77
2021/09/30 13:49:31;;;;;;;3.97;1.50;;;;;;;18.34;43.09;102260.38;5000144;28;20270;-78
2021/09/30 13:51:56;;;;;;;4.73;1.77;;;;;;;18.40;43.66;102266.50;4994435;28;20184;-76
2021/09/30 13:54:21;;;;;;;5.20;1.47;;;;;;;19.27;43.30;102251.69;4994588;28;20198;-77
2021/09/30 13:56:47;;;;;;;4.47;1.40;;;;;;;19.75;41.55;102258.88;4994536;28;20215;-77